Forest fire From: 19-07-2018 17:00 Until: 20-07-2018 16:00 warning for: Forest fire Level: Yellow info button
suomi:
Metsäpalovaroitus on voimassa.

svenska:
Varning för skogsbrand gäller.

english:
A forest fire warning is in force. 

Extreme high temperature From: 19-07-2018 17:00 Until: 23:00 warning for: Extreme high temperature Level: Yellow info button
suomi:
Hellevaroitus: Lähivuorokauden aikana on odotettavissa tukalaa hellettä.

svenska:
Varning för värmebölja: Under det närmaste dygnet är den svåra hettan att vänta.

english:
Heat wave warning: Warm weather is expected during the coming 24 hours. 


Thunder radar more information blitzortung!


Löydät sääaseman tiedot myös:

European Weather Network

Finland Weather Exchange

Weather Underground

AWEKAS



Weather Underground säähistoriasivu

Päivittäin yhteenveto Maaliskuu 13, 2017 Yksiköt:  Metriset    Englantilaiset   Molemmat
« Edellinen Päivä
Seuraava Päivä »
Päivittäin Viikoittain Kuukausittain Vuosittain Mukautettu
  Korkea: Matala: Keskiarvo:
Lämpötila: -17.8 °C -18.1 °C -16.8 °C
Kastepiste: -17.8 °C -18.9 °C -17.9 °C
Kosteus: Humidity % 69 % 87 %
Tuulen nopeus: 0 km/h 0 km/h 10.1 km/h
Tuulenpuuska: 0 km/h - -
Tuuli:- - SSW
Ilmanpaine: 0 hPa 34361.1 hPa -
Sade: 0 mm    
Historical Graphs
 
 
Taulukkotiedot Maaliskuu 13, 2017
Aika Lämpötila Kastepiste Ilmanpaine Tuuli Tuulen nopeus Tuulenpuuska Kosteus Sademäärä (tunneittain)
-17.8 °C -17.8 °C 0 hPa Calm     Humidity % 0 mm
00:00 -17.7 °C -18.1 °C 34462.7 hPa SSW 7.7 km/h 15.6 km/h 96 % 0 mm
00:15 -17.7 °C -18.1 °C 34476.3 hPa SSW 5.1 km/h 12.9 km/h 96 % 0 mm
00:30 -17.8 °C -18.1 °C 34476.3 hPa Calm   5.1 km/h 96 % 0 mm
00:45 -17.9 °C -18.2 °C 34476.3 hPa SSW 2.6 km/h 10.3 km/h 96 % 0 mm
01:00 -17.9 °C -18.2 °C 34476.3 hPa SSW 5.1 km/h 12.9 km/h 96 % 0 mm
01:15 -17.9 °C -18.2 °C 34476.3 hPa Calm   7.7 km/h 96 % 0 mm
01:30 -17.9 °C -18.2 °C 34476.3 hPa Calm   10.3 km/h 96 % 0 mm
01:45 -17.9 °C -18.2 °C 34476.3 hPa Calm   7.7 km/h 96 % 0 mm
02:00 -17.9 °C -18.2 °C 34476.3 hPa SSW 2.6 km/h 12.9 km/h 96 % 0 mm
02:15 -17.8 °C -18.2 °C 34476.3 hPa SSW 10.3 km/h 20.8 km/h 96 % 0 mm
02:30 -17.9 °C -18.2 °C 34486.4 hPa SSW 10.3 km/h 31.1 km/h 96 % 0 mm
02:45 -17.9 °C -18.2 °C 34486.4 hPa SSW 5.1 km/h 15.6 km/h 96 % 0 mm
03:00 -17.9 °C -18.1 °C 34486.4 hPa SSW 7.7 km/h 15.6 km/h 97 % 0 mm
03:15 -17.9 °C -18.1 °C 34486.4 hPa SSW 5.1 km/h 15.6 km/h 97 % 0 mm
03:30 -17.9 °C -18.1 °C 34486.4 hPa SSW 7.7 km/h 18.2 km/h 97 % 0 mm
03:45 -17.8 °C -18.1 °C 34486.4 hPa SW 5.1 km/h 12.9 km/h 97 % 0 mm
04:00 -17.8 °C -18.1 °C 34486.4 hPa SSW 7.7 km/h 18.2 km/h 97 % 0 mm
04:15 -17.8 °C -18.1 °C 34486.4 hPa SSW 5.1 km/h 12.9 km/h 97 % 0 mm
04:30 -17.8 °C -18 °C 34486.4 hPa SSW 7.7 km/h 18.2 km/h 97 % 0 mm
04:45 -17.7 °C -18 °C 34486.4 hPa SSW 5.1 km/h 12.9 km/h 97 % 0 mm
05:00 -17.7 °C -18 °C 34486.4 hPa SSW 7.7 km/h 20.8 km/h 97 % 0 mm
05:15 -17.7 °C -18 °C 34486.4 hPa SSW 7.7 km/h 18.2 km/h 97 % 0 mm
05:30 -17.8 °C -18 °C 34486.4 hPa SSW 7.7 km/h 20.8 km/h 97 % 0 mm
05:45 -17.8 °C -18.1 °C 34486.4 hPa SSW 7.7 km/h 18.2 km/h 97 % 0 mm
06:00 -17.9 °C -18.1 °C 34486.4 hPa SSW 5.1 km/h 15.6 km/h 97 % 0 mm
06:15 -17.9 °C -18.2 °C 34486.4 hPa SSW 7.7 km/h 20.8 km/h 97 % 0 mm
06:30 -17.9 °C -18.2 °C 34486.4 hPa SSW 5.1 km/h 15.6 km/h 97 % 0 mm
06:45 -18 °C -18.3 °C 34486.4 hPa SSW 7.7 km/h 23.3 km/h 97 % 0 mm
07:00 -18.1 °C -18.3 °C 34496.6 hPa SSW 10.3 km/h 20.8 km/h 97 % 0 mm
07:15 -18.1 °C -18.3 °C 34496.6 hPa SSW 5.1 km/h 15.6 km/h 97 % 0 mm
07:30 -18.1 °C -18.3 °C 34496.6 hPa SSW 7.7 km/h 15.6 km/h 97 % 0 mm
07:45 -18.1 °C -18.3 °C 34496.6 hPa SSW 10.3 km/h 20.8 km/h 97 % 0 mm
08:00 -18 °C -18.3 °C 34496.6 hPa SSW 7.7 km/h 18.2 km/h 97 % 0 mm
08:15 -18 °C -18.3 °C 34496.6 hPa SSW 7.7 km/h 18.2 km/h 97 % 0 mm
08:30 -18 °C -18.2 °C 34496.6 hPa SSW 7.7 km/h 15.6 km/h 98 % 0 mm
08:45 -18 °C -18.2 °C 34486.4 hPa SSW 7.7 km/h 18.2 km/h 97 % 0 mm
09:00 -17.9 °C -18.2 °C 34486.4 hPa SSW 7.7 km/h 23.3 km/h 97 % 0 mm
09:15 -17.9 °C -18.1 °C 34486.4 hPa SSW 7.7 km/h 20.8 km/h 98 % 0 mm
09:30 -17.8 °C -18.1 °C 34496.6 hPa SSW 7.7 km/h 18.2 km/h 97 % 0 mm
09:45 -17.7 °C -17.9 °C 34486.4 hPa SSW 10.3 km/h 18.2 km/h 98 % 0 mm
10:00 -17.7 °C -17.8 °C 34486.4 hPa SSW 10.3 km/h 23.3 km/h 98 % 0 mm
10:15 -17.6 °C -17.7 °C 34486.4 hPa SSW 10.3 km/h 23.3 km/h 98 % 0 mm
10:30 -17.3 °C -17.4 °C 34486.4 hPa SSW 12.9 km/h 28.5 km/h 98 % 0 mm
10:45 -17.1 °C -17.2 °C 34496.6 hPa SSW 12.9 km/h 31.1 km/h 98 % 0 mm
11:00 -16.8 °C -17 °C 34486.4 hPa SSW 10.3 km/h 23.3 km/h 98 % 0 mm
11:15 -16.5 °C -16.6 °C 34486.4 hPa SSW 10.3 km/h 28.5 km/h 98 % 0 mm
11:30 -16.1 °C -16.4 °C 34486.4 hPa SSW 12.9 km/h 31.1 km/h 96 % 0 mm
11:45 -15.8 °C -16.4 °C 34486.4 hPa SSW 12.9 km/h 23.3 km/h 93 % 0 mm
12:00 -15.7 °C -16.4 °C 34486.4 hPa SSW 12.9 km/h 33.6 km/h 91 % 0 mm
12:15 -15.6 °C -16.4 °C 34486.4 hPa SSW 10.3 km/h 31.1 km/h 90 % 0 mm
12:30 -15.2 °C -16.3 °C 34486.4 hPa SSW 12.9 km/h 33.6 km/h 87 % 0 mm
12:45 -15.3 °C -16.4 °C 34486.4 hPa SSW 10.3 km/h 28.5 km/h 86 % 0 mm
13:00 -15.4 °C -16.6 °C 34486.4 hPa SSW 15.6 km/h 33.6 km/h 86 % 0 mm
13:15 -15.4 °C -16.6 °C 34476.3 hPa SSW 18.2 km/h 33.6 km/h 86 % 0 mm
13:30 -15.4 °C -16.7 °C 34476.3 hPa SSW 15.6 km/h 28.5 km/h 85 % 0 mm
13:45 -15.7 °C -16.8 °C 34476.3 hPa SSW 15.6 km/h 31.1 km/h 87 % 0 mm
14:00 -15.8 °C -16.8 °C 34476.3 hPa SSW 15.6 km/h 31.1 km/h 88 % 0 mm
14:15 -15.7 °C -16.7 °C 34462.7 hPa SSW 12.9 km/h 31.1 km/h 88 % 0 mm
14:30 -15.7 °C -16.7 °C 34462.7 hPa SSW 10.3 km/h 31.1 km/h 87 % 0 mm
14:45 -15.6 °C -16.7 °C 34452.6 hPa SSW 15.6 km/h 28.5 km/h 86 % 0 mm
15:00 -15.3 °C -16.6 °C 34442.4 hPa South 12.9 km/h 31.1 km/h 85 % 0 mm
15:15 -14.9 °C -16.5 °C 34442.4 hPa SSW 15.6 km/h 33.6 km/h 82 % 0 mm
15:30 -14.8 °C -16.8 °C 34442.4 hPa SSW 20.8 km/h 38.8 km/h 78 % 0 mm
15:45 -14.8 °C -17.1 °C 34428.8 hPa SSW 18.2 km/h 36.2 km/h 75 % 0 mm
16:00 -14.8 °C -17.3 °C 34428.8 hPa SSW 18.2 km/h 36.2 km/h 72 % 0 mm
16:15 -15.1 °C -17.5 °C 34428.8 hPa SSW 12.9 km/h 28.5 km/h 73 % 0 mm
16:30 -15.1 °C -17.6 °C 34428.8 hPa SSW 12.9 km/h 36.2 km/h 72 % 0 mm
16:45 -15.1 °C -17.9 °C 34428.8 hPa SSW 15.6 km/h 33.6 km/h 70 % 0 mm
17:00 -15.2 °C -17.9 °C 34428.8 hPa SSW 15.6 km/h 41.4 km/h 71 % 0 mm
17:15 -15.4 °C -18.2 °C 34428.8 hPa SSW 12.9 km/h 33.6 km/h 70 % 0 mm
17:30 -15.6 °C -18.3 °C 34428.8 hPa SSW 12.9 km/h 33.6 km/h 70 % 0 mm
17:45 -15.7 °C -18.6 °C 34418.7 hPa SSW 12.9 km/h 25.9 km/h 69 % 0 mm
18:00 -15.7 °C -18.6 °C 34418.7 hPa SSW 10.3 km/h 20.8 km/h 69 % 0 mm
18:15 -15.9 °C -18.7 °C 34418.7 hPa SSW 10.3 km/h 25.9 km/h 69 % 0 mm
18:30 -16 °C -18.8 °C 34405.1 hPa SSW 7.7 km/h 20.8 km/h 69 % 0 mm
18:45 -16 °C -18.8 °C 34418.7 hPa SSW 12.9 km/h 23.3 km/h 69 % 0 mm
19:00 -16 °C -18.9 °C 34405.1 hPa SSW 10.3 km/h 31.1 km/h 69 % 0 mm
19:15 -16.1 °C -18.8 °C 34405.1 hPa SSW 7.7 km/h 20.8 km/h 70 % 0 mm
19:30 -16.1 °C -18.7 °C 34405.1 hPa SSW 12.9 km/h 25.9 km/h 71 % 0 mm
19:45 -16.2 °C -18.7 °C 34405.1 hPa SSW 10.3 km/h 31.1 km/h 72 % 0 mm
20:00 -16.2 °C -18.7 °C 34395 hPa SSW 12.9 km/h 25.9 km/h 73 % 0 mm
20:15 -16.3 °C -18.6 °C 34395 hPa SSW 7.7 km/h 20.8 km/h 75 % 0 mm
20:30 -16.4 °C -18.5 °C 34395 hPa SSW 10.3 km/h 23.3 km/h 76 % 0 mm
20:45 -16.5 °C -18.5 °C 34395 hPa SSW 7.7 km/h 23.3 km/h 77 % 0 mm
21:00 -16.5 °C -18.5 °C 34395 hPa SSW 10.3 km/h 31.1 km/h 77 % 0 mm
21:15 -16.5 °C -18.5 °C 34395 hPa SSW 12.9 km/h 20.8 km/h 77 % 0 mm
21:30 -16.5 °C -18.4 °C 34384.8 hPa SSW 12.9 km/h 23.3 km/h 78 % 0 mm
21:45 -16.5 °C -18.4 °C 34384.8 hPa SSW 10.3 km/h 31.1 km/h 78 % 0 mm
22:00 -16.5 °C -18.4 °C 34371.3 hPa SSW 15.6 km/h 31.1 km/h 78 % 0 mm
22:15 -16.6 °C -18.4 °C 34371.3 hPa SSW 12.9 km/h 33.6 km/h 79 % 0 mm
22:30 -16.6 °C -18.4 °C 34371.3 hPa SSW 15.6 km/h 28.5 km/h 79 % 0 mm
22:45 -16.7 °C -18.4 °C 34371.3 hPa SSW 15.6 km/h 36.2 km/h 80 % 0 mm
23:00 -16.8 °C -18.5 °C 34371.3 hPa SSW 12.9 km/h 33.6 km/h 80 % 0 mm
23:15 -16.7 °C -18.4 °C 34371.3 hPa SSW 15.6 km/h 41.4 km/h 80 % 0 mm
23:30 -16.8 °C -18.5 °C 34371.3 hPa SSW 15.6 km/h 46.7 km/h 80 % 0 mm
23:45 -16.8 °C -18.4 °C 34361.1 hPa SSW 15.6 km/h 36.2 km/h 81 % 0 mm
Esan sääasema
Terveisin Weather Underground - 2.75 mb

Alkuperäinen skripti  Jim McMurry - jmcmurry@mwt.net Sovitettu myös templatelle  Wim van der Kuil - Leuven-Template.eu

Laitteet joita käytämme:

Sääasema
Davis VP2

Sääasemaohjelma
Cumulus

Sääaseman tietokone
Asus EeePC

Palveluntarjoaja
Suncomet

Davis VP2

Cumulus

Asus EeePC

Suncomet